Main page
METAR-TAF:

METAR-TAF

Airports :

Borg El Arab Airport

Alexandria-Borg El Arab, Egypt

latitude: 31-31N, longitude: 030-10E, elevation: 54 m

Current weather observation

The report was made 37 minutes ago, at 16:18 UTC
Wind 6 kt from the North/Northwest
Temperature 21°C
Humidity 60%
Pressure 1020 hPa
Visibility 10 km or more
Scattered clouds at a height of 2000 ft

METAR: HEBA 211618Z 33006KT 9999 SCT020 21/13 Q1020 NOSIG

Time: 18:55 (16:55 UTC)

Forecast

The report was made 5 hours and 55 minutes ago, at 11:00 UTC
Forecast valid from 21 at 12 UTC to 22 at 18 UTC
Wind 12 kt from the North/Northwest
Visibility 10 km or more
Scattered clouds at a height of 2000 ft

TAF: HEBA 211100Z 2112/2218 34012KT 9999 SCT020

Weather observations and forecasts of more than 4000 airports (METAR and TAF reports).

The available stations are represented by yellow and red dots on the map.

Hover mouse over dot to see the name of the station.

Then click to see weather observations and forecasts.

To change the map : click on the green buttons with a black cross to zoom in, on the green button with a dash to zoom out, or on the green arrows for adjacent maps.


METAR-TAF: